createdAt,value
2016-07-04T00:00:11.464Z,0
2016-07-04T00:01:11.021Z,0
2016-07-04T00:02:10.967Z,0
2016-07-04T00:03:10.984Z,0
2016-07-04T00:04:10.977Z,0
2016-07-04T00:05:10.973Z,0
2016-07-04T00:06:10.975Z,0
2016-07-04T00:07:10.981Z,0
2016-07-04T00:08:10.988Z,0
2016-07-04T00:09:11.013Z,0
2016-07-04T00:10:11.000Z,0
2016-07-04T00:11:10.991Z,0
2016-07-04T00:12:11.013Z,0
2016-07-04T00:13:11.016Z,0
2016-07-04T00:14:10.999Z,0
2016-07-04T00:15:10.977Z,0
2016-07-04T00:16:10.992Z,0
2016-07-04T00:17:10.997Z,0
2016-07-04T00:18:10.987Z,0
2016-07-04T00:19:10.998Z,0
2016-07-04T00:20:11.007Z,0
2016-07-04T00:21:11.038Z,0
2016-07-04T00:22:11.016Z,0
2016-07-04T00:23:11.005Z,0
2016-07-04T00:24:10.981Z,0
2016-07-04T00:25:11.018Z,0
2016-07-04T00:26:11.527Z,0
2016-07-04T00:27:11.010Z,0
2016-07-04T00:28:11.027Z,0
2016-07-04T00:29:10.992Z,0
2016-07-04T00:30:12.137Z,0
2016-07-04T00:31:12.012Z,0
2016-07-04T00:32:11.047Z,0
2016-07-04T00:33:12.366Z,0
2016-07-04T00:34:12.031Z,0
2016-07-04T00:35:11.549Z,0
2016-07-04T00:36:11.136Z,0
2016-07-04T00:37:11.016Z,0
2016-07-04T00:38:11.061Z,0
2016-07-04T00:39:11.045Z,0
2016-07-04T00:40:11.070Z,0
2016-07-04T00:41:11.083Z,0
2016-07-04T00:42:11.070Z,0
2016-07-04T00:43:11.052Z,0
2016-07-04T00:44:11.045Z,0
2016-07-04T00:45:11.033Z,0
2016-07-04T00:46:11.083Z,0
2016-07-04T00:47:11.077Z,0
2016-07-04T00:48:11.055Z,0
2016-07-04T00:49:11.076Z,0
2016-07-04T00:50:11.051Z,0
2016-07-04T00:51:11.012Z,0
2016-07-04T00:52:11.037Z,0
2016-07-04T00:53:11.048Z,0
2016-07-04T00:54:11.052Z,0
2016-07-04T00:55:11.058Z,0
2016-07-04T00:56:11.051Z,0
2016-07-04T00:57:11.802Z,0
2016-07-04T00:58:11.648Z,0
2016-07-04T00:59:11.094Z,0
2016-07-04T01:00:11.079Z,0
2016-07-04T01:01:11.105Z,0
2016-07-04T01:02:11.115Z,0
2016-07-04T01:03:11.085Z,0
2016-07-04T01:04:11.076Z,0
2016-07-04T01:05:11.042Z,0
2016-07-04T01:06:11.287Z,0
2016-07-04T01:07:11.138Z,0
2016-07-04T01:08:11.451Z,0
2016-07-04T01:09:11.146Z,0
2016-07-04T01:10:11.108Z,0
2016-07-04T01:11:11.437Z,0
2016-07-04T01:12:12.219Z,0
2016-07-04T01:13:11.078Z,0
2016-07-04T01:14:11.004Z,0
2016-07-04T01:15:11.051Z,0
2016-07-04T01:16:11.078Z,0
2016-07-04T01:17:11.081Z,0
2016-07-04T01:18:11.080Z,0
2016-07-04T01:19:11.046Z,0
2016-07-04T01:20:11.055Z,0
2016-07-04T01:21:11.058Z,0
2016-07-04T01:22:11.065Z,0
2016-07-04T01:23:11.077Z,0
2016-07-04T01:24:11.081Z,0
2016-07-04T01:25:11.085Z,0
2016-07-04T01:26:11.380Z,0
2016-07-04T01:27:11.095Z,0
2016-07-04T01:28:11.113Z,0
2016-07-04T01:29:11.145Z,0
2016-07-04T01:30:11.111Z,0
2016-07-04T01:31:12.091Z,0
2016-07-04T01:32:11.695Z,0
2016-07-04T01:33:12.129Z,0
2016-07-04T01:34:12.132Z,0
2016-07-04T01:35:12.246Z,0
2016-07-04T01:36:11.086Z,0
2016-07-04T01:37:11.231Z,0
2016-07-04T01:38:11.117Z,0
2016-07-04T01:39:11.106Z,0
2016-07-04T01:40:11.083Z,0
2016-07-04T01:41:11.342Z,0
2016-07-04T01:42:11.051Z,0
2016-07-04T01:43:11.107Z,0
2016-07-04T01:44:11.112Z,0
2016-07-04T01:45:11.121Z,0
2016-07-04T01:46:11.098Z,0
2016-07-04T01:47:11.176Z,0
2016-07-04T01:48:11.141Z,0
2016-07-04T01:49:11.146Z,0
2016-07-04T01:50:11.139Z,0
2016-07-04T01:51:11.114Z,0
2016-07-04T01:52:11.108Z,0
2016-07-04T01:53:11.081Z,0
2016-07-04T01:54:11.094Z,0
2016-07-04T01:55:11.129Z,0
2016-07-04T01:56:11.112Z,0
2016-07-04T01:57:11.090Z,0
2016-07-04T01:58:11.061Z,0
2016-07-04T01:59:11.085Z,0
2016-07-04T02:00:11.083Z,0
2016-07-04T02:01:11.085Z,0
2016-07-04T02:02:11.120Z,0
2016-07-04T02:03:11.112Z,0
2016-07-04T02:04:11.106Z,0
2016-07-04T02:05:12.331Z,0
2016-07-04T02:06:11.118Z,0
2016-07-04T02:07:11.770Z,0
2016-07-04T02:08:11.101Z,0
2016-07-04T02:09:11.297Z,0
2016-07-04T02:10:11.184Z,0
2016-07-04T02:11:11.322Z,0
2016-07-04T02:12:11.914Z,0
2016-07-04T02:13:11.447Z,0
2016-07-04T02:14:11.169Z,0
2016-07-04T02:15:11.386Z,0
2016-07-04T02:16:11.171Z,0
2016-07-04T02:17:11.291Z,0
2016-07-04T02:18:11.119Z,0
2016-07-04T02:19:11.084Z,0
2016-07-04T02:20:11.148Z,0
2016-07-04T02:21:11.173Z,0
2016-07-04T02:22:11.182Z,0
2016-07-04T02:23:11.123Z,4
2016-07-04T02:24:11.177Z,4
2016-07-04T02:25:11.201Z,4
2016-07-04T02:26:11.237Z,4
2016-07-04T02:27:11.161Z,4
2016-07-04T02:28:12.143Z,4
2016-07-04T02:29:11.177Z,0
2016-07-04T02:30:11.144Z,0
2016-07-04T02:31:11.118Z,4
2016-07-04T02:32:11.234Z,4
2016-07-04T02:33:11.802Z,4
2016-07-04T02:34:11.139Z,4
2016-07-04T02:35:11.801Z,8
2016-07-04T02:36:11.726Z,4
2016-07-04T02:37:12.257Z,4
2016-07-04T02:38:11.146Z,8
2016-07-04T02:39:11.205Z,4
2016-07-04T02:40:11.145Z,8
2016-07-04T02:41:11.151Z,8
2016-07-04T02:42:11.123Z,12
2016-07-04T02:43:11.129Z,12
2016-07-04T02:44:11.129Z,12
2016-07-04T02:45:11.123Z,16
2016-07-04T02:46:11.142Z,16
2016-07-04T02:47:11.148Z,16
2016-07-04T02:48:11.141Z,20
2016-07-04T02:49:11.099Z,24
2016-07-04T02:50:11.164Z,24
2016-07-04T02:51:11.114Z,24
2016-07-04T02:52:11.181Z,28
2016-07-04T02:53:11.145Z,32
2016-07-04T02:54:11.134Z,32
2016-07-04T02:55:11.108Z,40
2016-07-04T02:56:11.116Z,40
2016-07-04T02:57:11.163Z,44
2016-07-04T02:58:11.113Z,48
2016-07-04T02:59:11.124Z,52
2016-07-04T03:00:11.954Z,56
2016-07-04T03:01:11.148Z,64
2016-07-04T03:02:11.138Z,64
2016-07-04T03:03:11.141Z,76
2016-07-04T03:04:11.144Z,84
2016-07-04T03:05:11.123Z,88
2016-07-04T03:06:11.177Z,96
2016-07-04T03:07:11.143Z,112
2016-07-04T03:08:11.160Z,120
2016-07-04T03:09:12.103Z,128
2016-07-04T03:10:12.116Z,144
2016-07-04T03:11:11.171Z,152
2016-07-04T03:12:11.179Z,160
2016-07-04T03:13:11.133Z,168
2016-07-04T03:14:11.175Z,180
2016-07-04T03:15:11.459Z,192
2016-07-04T03:16:11.109Z,208
2016-07-04T03:17:11.231Z,224
2016-07-04T03:18:11.114Z,244
2016-07-04T03:19:11.137Z,260
2016-07-04T03:20:11.143Z,284
2016-07-04T03:21:11.137Z,304
2016-07-04T03:22:11.147Z,332
2016-07-04T03:23:11.139Z,356
2016-07-04T03:24:11.171Z,376
2016-07-04T03:25:11.171Z,404
2016-07-04T03:26:11.506Z,432
2016-07-04T03:27:11.138Z,456
2016-07-04T03:28:11.170Z,484
2016-07-04T03:29:11.141Z,512
2016-07-04T03:30:11.161Z,540
2016-07-04T03:31:11.149Z,564
2016-07-04T03:32:11.230Z,592
2016-07-04T03:33:11.191Z,624
2016-07-04T03:34:11.253Z,648
2016-07-04T03:35:11.206Z,680
2016-07-04T03:36:11.201Z,720
2016-07-04T03:37:11.184Z,748
2016-07-04T03:38:11.174Z,780
2016-07-04T03:39:11.201Z,824
2016-07-04T03:40:11.143Z,844
2016-07-04T03:41:11.137Z,868
2016-07-04T03:42:11.173Z,896
2016-07-04T03:43:11.168Z,928
2016-07-04T03:44:11.116Z,956
2016-07-04T03:45:11.180Z,1004
2016-07-04T03:46:11.142Z,1060
2016-07-04T03:47:11.162Z,1108
2016-07-04T03:48:11.131Z,1136
2016-07-04T03:49:11.170Z,1192
2016-07-04T03:50:11.169Z,1276
2016-07-04T03:51:11.140Z,1316
2016-07-04T03:52:11.198Z,1328
2016-07-04T03:53:11.147Z,1324
2016-07-04T03:54:11.171Z,1352
2016-07-04T03:55:11.181Z,1432
2016-07-04T03:56:11.168Z,1496
2016-07-04T03:57:11.175Z,1508
2016-07-04T03:58:11.170Z,1528
2016-07-04T03:59:11.171Z,1576
2016-07-04T04:00:11.196Z,1616
2016-07-04T04:01:11.199Z,1656
2016-07-04T04:02:11.168Z,1696
2016-07-04T04:03:11.168Z,1736
2016-07-04T04:04:11.219Z,1776
2016-07-04T04:05:11.218Z,1804
2016-07-04T04:06:11.216Z,1820
2016-07-04T04:07:11.200Z,1844
2016-07-04T04:08:11.207Z,1876
2016-07-04T04:09:11.196Z,1928
2016-07-04T04:10:11.231Z,1976
2016-07-04T04:11:11.199Z,2008
2016-07-04T04:12:11.200Z,2036
2016-07-04T04:13:11.174Z,2052
2016-07-04T04:14:11.199Z,2064
2016-07-04T04:15:11.252Z,2124
2016-07-04T04:16:11.206Z,2200
2016-07-04T04:17:11.203Z,2284
2016-07-04T04:18:11.236Z,2368
2016-07-04T04:19:11.205Z,2456
2016-07-04T04:20:11.211Z,2484
2016-07-04T04:21:11.218Z,2536
2016-07-04T04:22:11.211Z,2628
2016-07-04T04:23:11.195Z,2744
2016-07-04T04:24:11.266Z,2800
2016-07-04T04:25:12.164Z,2824
2016-07-04T04:26:11.198Z,2868
2016-07-04T04:27:11.204Z,2872
2016-07-04T04:28:11.238Z,2852
2016-07-04T04:29:11.210Z,2808
2016-07-04T04:30:11.180Z,2776
2016-07-04T04:31:11.267Z,2768
2016-07-04T04:32:11.207Z,2812
2016-07-04T04:33:11.234Z,2840
2016-07-04T04:34:11.262Z,2848
2016-07-04T04:35:12.420Z,2884
2016-07-04T04:36:12.251Z,2936
2016-07-04T04:37:12.244Z,2920
2016-07-04T04:38:12.245Z,2828
2016-07-04T04:39:11.965Z,2692
2016-07-04T04:40:12.027Z,2656
2016-07-04T04:41:11.284Z,2592
2016-07-04T04:42:11.214Z,2512
2016-07-04T04:43:11.996Z,2480
2016-07-04T04:44:11.230Z,2556
2016-07-04T04:45:11.800Z,2708
2016-07-04T04:46:11.301Z,2872
2016-07-04T04:47:11.243Z,2932
2016-07-04T04:48:11.232Z,2916
2016-07-04T04:49:11.248Z,2948
2016-07-04T04:50:11.271Z,3004
2016-07-04T04:51:11.330Z,3060
2016-07-04T04:52:11.256Z,3064
2016-07-04T04:53:11.278Z,3036
2016-07-04T04:54:11.232Z,2968
2016-07-04T04:55:11.241Z,2920
2016-07-04T04:56:11.542Z,2924
2016-07-04T04:57:11.241Z,2968
2016-07-04T04:58:11.226Z,3052
2016-07-04T04:59:11.226Z,3212
2016-07-04T05:00:11.252Z,3396
2016-07-04T05:01:11.972Z,3556
2016-07-04T05:02:16.677Z,3600
2016-07-04T05:03:11.456Z,3572
2016-07-04T05:04:11.411Z,3588
2016-07-04T05:05:11.243Z,3564
2016-07-04T05:06:11.804Z,3208
2016-07-04T05:07:11.581Z,3268
2016-07-04T05:08:11.272Z,3192
2016-07-04T05:09:11.255Z,3228
2016-07-04T05:10:11.272Z,3260
2016-07-04T05:11:11.263Z,3288
2016-07-04T05:12:11.274Z,3308
2016-07-04T05:13:11.248Z,3360
2016-07-04T05:14:11.253Z,3620
2016-07-04T05:15:11.283Z,3580
2016-07-04T05:16:11.238Z,3600
2016-07-04T05:17:11.322Z,3616
2016-07-04T05:18:11.256Z,3864
2016-07-04T05:19:11.451Z,4180
2016-07-04T05:20:11.338Z,4356
2016-07-04T05:21:11.350Z,4396
2016-07-04T05:22:11.603Z,4396
2016-07-04T05:23:11.364Z,4416
2016-07-04T05:24:11.542Z,4408
2016-07-04T05:25:12.834Z,4420
2016-07-04T05:26:11.826Z,4416
2016-07-04T05:27:11.376Z,4476
2016-07-04T05:28:11.635Z,4524
2016-07-04T05:29:11.426Z,4568
2016-07-04T05:30:11.426Z,4676
2016-07-04T05:31:11.306Z,4712
2016-07-04T05:32:11.289Z,4572
2016-07-04T05:33:11.271Z,4528
2016-07-04T05:34:11.250Z,4524
2016-07-04T05:35:12.001Z,4604
2016-07-04T05:36:11.821Z,4864
2016-07-04T05:37:17.356Z,5432
2016-07-04T05:38:21.980Z,6124
2016-07-04T05:39:12.502Z,7076
2016-07-04T05:40:11.270Z,7960
2016-07-04T05:41:11.337Z,8580
2016-07-04T05:42:11.247Z,9100
2016-07-04T05:43:11.296Z,9560
2016-07-04T05:44:11.291Z,9864
2016-07-04T05:45:11.332Z,9796
2016-07-04T05:46:11.328Z,9808
2016-07-04T05:47:11.299Z,9980
2016-07-04T05:48:11.538Z,10148
2016-07-04T05:49:12.141Z,10260
2016-07-04T05:50:11.719Z,10428
2016-07-04T05:51:11.263Z,10620
2016-07-04T05:52:11.276Z,11228
2016-07-04T05:53:11.273Z,11192
2016-07-04T05:54:11.307Z,11016
2016-07-04T05:55:11.576Z,10988
2016-07-04T05:56:11.330Z,10908
2016-07-04T05:57:11.330Z,10788
2016-07-04T05:58:11.301Z,11392
2016-07-04T05:59:11.319Z,12132
2016-07-04T06:00:11.569Z,12288
2016-07-04T06:01:11.347Z,12460
2016-07-04T06:02:11.362Z,13348
2016-07-04T06:03:11.273Z,13704
2016-07-04T06:04:11.281Z,13812
2016-07-04T06:05:11.289Z,13840
2016-07-04T06:06:11.304Z,13432
2016-07-04T06:07:11.346Z,13236
2016-07-04T06:08:11.280Z,13184
2016-07-04T06:09:11.278Z,12496
2016-07-04T06:10:12.203Z,12992
2016-07-04T06:11:11.463Z,12872
2016-07-04T06:12:11.332Z,12708
2016-07-04T06:13:11.565Z,12456
2016-07-04T06:14:11.369Z,12252
2016-07-04T06:15:11.395Z,12132
2016-07-04T06:16:11.368Z,12052
2016-07-04T06:17:11.306Z,11936
2016-07-04T06:18:11.367Z,12004
2016-07-04T06:19:11.320Z,12104
2016-07-04T06:20:11.590Z,12176
2016-07-04T06:21:11.506Z,14392
2016-07-04T06:22:11.428Z,19840
2016-07-04T06:23:11.496Z,27680
2016-07-04T06:24:11.339Z,34688
2016-07-04T06:25:11.334Z,13120
2016-07-04T06:26:11.327Z,12128
2016-07-04T06:27:11.358Z,12400
2016-07-04T06:28:11.486Z,13316
2016-07-04T06:29:11.988Z,41312
2016-07-04T06:30:11.738Z,19116
2016-07-04T06:31:11.378Z,41664
2016-07-04T06:32:12.234Z,32512
2016-07-04T06:33:11.431Z,42336
2016-07-04T06:34:11.646Z,54400
2016-07-04T06:35:12.367Z,54720
2016-07-04T06:36:11.388Z,54720
2016-07-04T06:37:11.495Z,54272
2016-07-04T06:38:11.391Z,54624
2016-07-04T06:39:11.332Z,57664
2016-07-04T06:40:11.483Z,59360
2016-07-04T06:41:11.445Z,39712
2016-07-04T06:42:11.439Z,49760
2016-07-04T06:43:11.819Z,33504
2016-07-04T06:44:11.364Z,40608
2016-07-04T06:45:11.347Z,39488
2016-07-04T06:46:11.318Z,38880
2016-07-04T06:47:11.371Z,25152
2016-07-04T06:48:11.411Z,43840
2016-07-04T06:49:11.828Z,38560
2016-07-04T06:50:11.539Z,52224
2016-07-04T06:51:11.491Z,60384
2016-07-04T06:52:11.349Z,53312
2016-07-04T06:53:11.545Z,59040
2016-07-04T06:54:11.353Z,59968
2016-07-04T06:55:11.420Z,60928
2016-07-04T06:56:11.395Z,60160
2016-07-04T06:57:12.551Z,60864
2016-07-04T06:58:11.376Z,60832
2016-07-04T06:59:11.488Z,59488
2016-07-04T07:00:12.434Z,54976
2016-07-04T07:01:11.450Z,54528
2016-07-04T07:02:11.418Z,56704
2016-07-04T07:03:11.429Z,58976
2016-07-04T07:04:11.509Z,58944
2016-07-04T07:05:11.520Z,56896
2016-07-04T07:06:12.405Z,56064
2016-07-04T07:07:11.535Z,55616
2016-07-04T07:08:11.396Z,56160
2016-07-04T07:09:11.400Z,57664
2016-07-04T07:10:11.397Z,59872
2016-07-04T07:11:11.384Z,58752
2016-07-04T07:12:11.367Z,59072
2016-07-04T07:13:11.457Z,56704
2016-07-04T07:14:11.417Z,58048
2016-07-04T07:15:11.398Z,61600
2016-07-04T07:16:11.491Z,65184
2016-07-04T07:17:11.604Z,66432
2016-07-04T07:18:12.120Z,66016
2016-07-04T07:19:11.408Z,64960
2016-07-04T07:20:11.429Z,62016
2016-07-04T07:21:11.480Z,59584
2016-07-04T07:22:11.522Z,58272
2016-07-04T07:23:11.455Z,57952
2016-07-04T07:24:11.374Z,59072
2016-07-04T07:25:11.397Z,60128
2016-07-04T07:26:11.389Z,59104
2016-07-04T07:27:11.410Z,57632
2016-07-04T07:28:11.494Z,56480
2016-07-04T07:29:11.436Z,56192
2016-07-04T07:30:11.415Z,47072
2016-07-04T07:31:11.849Z,46880
2016-07-04T07:32:11.456Z,58400
2016-07-04T07:33:11.449Z,59328
2016-07-04T07:34:11.372Z,60256
2016-07-04T07:35:11.370Z,62848
2016-07-04T07:36:11.367Z,64768
2016-07-04T07:37:11.639Z,65440
2016-07-04T07:38:11.397Z,65888
2016-07-04T07:39:11.374Z,63488
2016-07-04T07:40:11.455Z,61152
2016-07-04T07:41:11.488Z,61216
2016-07-04T07:42:11.593Z,61472
2016-07-04T07:43:11.596Z,42592
2016-07-04T07:44:11.557Z,37600
2016-07-04T07:45:11.901Z,56608
2016-07-04T07:46:11.762Z,53408
2016-07-04T07:47:11.723Z,74432
2016-07-04T07:48:11.732Z,73984
2016-07-04T07:49:11.823Z,72736
2016-07-04T07:50:11.797Z,64896
2016-07-04T07:51:11.517Z,72320
2016-07-04T07:52:11.503Z,72288
2016-07-04T07:53:12.194Z,71296
2016-07-04T07:54:12.632Z,69440
2016-07-04T07:55:11.640Z,66464
2016-07-04T07:56:11.518Z,66208
2016-07-04T07:57:11.420Z,67520
2016-07-04T07:58:11.603Z,68288
2016-07-04T07:59:11.477Z,68896
2016-07-04T08:00:11.616Z,67328
2016-07-04T08:01:11.463Z,63296
2016-07-04T08:02:11.587Z,65216
2016-07-04T08:03:11.891Z,69344
2016-07-04T08:04:11.511Z,74624
2016-07-04T08:05:11.468Z,79008
2016-07-04T08:06:11.576Z,72064
2016-07-04T08:07:11.506Z,35968
2016-07-04T08:08:11.562Z,11224
2016-07-04T08:09:11.571Z,8700
2016-07-04T08:10:11.549Z,8272
2016-07-04T08:11:11.525Z,7992
2016-07-04T08:12:11.670Z,7896
2016-07-04T08:13:11.498Z,7820
2016-07-04T08:14:11.699Z,7796
2016-07-04T08:15:11.435Z,7832
2016-07-04T08:16:11.532Z,7832
2016-07-04T08:17:11.730Z,7856
2016-07-04T08:18:11.523Z,7848
2016-07-04T08:19:11.702Z,7864
2016-07-04T08:20:11.593Z,7876
2016-07-04T08:21:11.863Z,7828
2016-07-04T08:22:11.483Z,7776
2016-07-04T08:23:11.524Z,7856
2016-07-04T08:24:11.484Z,7912
2016-07-04T08:25:11.551Z,7888
2016-07-04T08:26:11.790Z,8044
2016-07-04T08:27:11.519Z,8020
2016-07-04T08:28:11.547Z,8064
2016-07-04T08:29:11.525Z,8616
2016-07-04T08:30:11.520Z,9172
2016-07-04T08:31:11.521Z,9720
2016-07-04T08:32:12.601Z,9112
2016-07-04T08:33:11.585Z,8892
2016-07-04T08:34:11.676Z,9512
2016-07-04T08:35:11.623Z,11408
2016-07-04T08:36:11.622Z,13528
2016-07-04T08:37:11.611Z,13620
2016-07-04T08:38:11.710Z,12896
2016-07-04T08:39:11.613Z,15232
2016-07-04T08:40:11.592Z,15360
2016-07-04T08:41:12.102Z,13656
2016-07-04T08:42:11.576Z,13648
2016-07-04T08:43:11.609Z,14860
2016-07-04T08:44:11.692Z,15196
2016-07-04T08:46:23.088Z,12532
2016-07-04T08:47:11.790Z,13312
2016-07-04T08:48:17.139Z,14260
2016-07-04T08:49:12.195Z,15320
2016-07-04T08:50:11.940Z,15320
2016-07-04T08:52:17.964Z,16628
2016-07-04T08:53:13.958Z,17424
2016-07-04T08:54:18.602Z,18600
2016-07-04T08:55:17.938Z,16724
2016-07-04T08:56:23.895Z,15048
2016-07-04T08:58:11.808Z,14164
2016-07-04T08:59:22.742Z,13032
2016-07-04T09:26:12.378Z,11188
2016-07-04T09:27:12.445Z,11172
2016-07-04T09:28:11.585Z,13160
2016-07-04T09:29:11.782Z,14952
2016-07-04T09:30:12.647Z,15300
2016-07-04T09:31:12.441Z,15312
2016-07-04T09:32:11.589Z,14748
2016-07-04T09:33:11.547Z,13472
2016-07-04T09:34:11.756Z,12504
2016-07-04T09:35:11.555Z,12184
2016-07-04T09:36:11.559Z,10984
2016-07-04T09:37:11.567Z,10896
2016-07-04T09:38:11.588Z,11128
2016-07-04T09:39:11.726Z,12044
2016-07-04T09:40:11.553Z,12728
2016-07-04T09:41:11.634Z,12100
2016-07-04T09:42:11.686Z,11844
2016-07-04T09:43:11.666Z,11652
2016-07-04T09:44:11.655Z,11392
2016-07-04T09:45:11.575Z,13572
2016-07-04T09:46:11.688Z,14424
2016-07-04T09:47:11.618Z,14716
2016-07-04T09:48:11.747Z,14512
2016-07-04T09:49:11.624Z,13640
2016-07-04T09:50:12.722Z,12872
2016-07-04T09:51:11.661Z,12448
2016-07-04T09:52:11.604Z,12496
2016-07-04T09:53:11.604Z,14068
2016-07-04T09:54:11.602Z,14512
2016-07-04T09:55:11.588Z,14096
2016-07-04T09:56:11.700Z,12972
2016-07-04T09:57:11.601Z,11788
2016-07-04T09:58:11.749Z,10632
2016-07-04T09:59:11.601Z,10320
2016-07-04T10:00:11.569Z,11084
2016-07-04T10:01:11.613Z,11660
2016-07-04T10:02:12.583Z,13884
2016-07-04T10:03:11.610Z,17196
2016-07-04T10:04:11.615Z,19488
2016-07-04T10:05:11.670Z,18656
2016-07-04T10:06:11.615Z,16424
2016-07-04T10:07:11.600Z,13976
2016-07-04T10:08:11.650Z,14096
2016-07-04T10:09:11.677Z,14104
2016-07-04T10:10:11.647Z,13368
2016-07-04T10:11:11.687Z,11584
2016-07-04T10:12:11.616Z,10092
2016-07-04T10:13:11.764Z,9808
2016-07-04T10:14:11.644Z,9664
2016-07-04T10:15:12.457Z,10376
2016-07-04T10:16:11.633Z,10916
2016-07-04T10:17:11.741Z,11180
2016-07-04T10:18:11.646Z,12448
2016-07-04T10:19:11.652Z,13540
2016-07-04T10:20:12.310Z,13432
2016-07-04T10:21:11.616Z,13360
2016-07-04T10:22:11.668Z,14100
2016-07-04T10:23:11.753Z,17176
2016-07-04T10:24:11.618Z,16972
2016-07-04T10:25:11.613Z,14380
2016-07-04T10:26:11.648Z,13016
2016-07-04T10:27:11.590Z,12812
2016-07-04T10:28:11.630Z,12904
2016-07-04T10:29:11.556Z,14120
2016-07-04T10:30:12.859Z,15156
2016-07-04T10:31:11.635Z,15160
2016-07-04T10:32:11.629Z,15048
2016-07-04T10:33:11.605Z,13992
2016-07-04T10:34:11.739Z,13288
2016-07-04T10:35:11.673Z,13668
2016-07-04T10:36:11.582Z,13308
2016-07-04T10:37:11.574Z,13328
2016-07-04T10:38:11.608Z,13828
2016-07-04T10:39:11.539Z,13872
2016-07-04T10:40:11.635Z,12284
2016-07-04T10:41:11.689Z,11764
2016-07-04T10:42:11.867Z,12036
2016-07-04T10:43:11.652Z,11736
2016-07-04T10:44:11.624Z,11852
2016-07-04T10:45:11.609Z,14108
2016-07-04T10:46:11.619Z,14796
2016-07-04T10:47:11.600Z,15260
2016-07-04T10:48:11.683Z,14788
2016-07-04T10:49:11.625Z,13384
2016-07-04T10:50:11.690Z,11872
2016-07-04T10:51:11.668Z,10484
2016-07-04T10:52:11.755Z,10588
2016-07-04T10:53:11.756Z,11728
2016-07-04T10:54:11.860Z,13420
2016-07-04T10:55:11.771Z,14920
2016-07-04T10:56:11.763Z,14900
2016-07-04T10:57:11.681Z,14492
2016-07-04T10:58:11.717Z,15172
2016-07-04T10:59:12.620Z,15024
2016-07-04T11:00:12.620Z,13764
2016-07-04T11:01:11.677Z,13628
2016-07-04T11:02:11.664Z,13532
2016-07-04T11:03:11.711Z,13228
2016-07-04T11:04:11.616Z,12840
2016-07-04T11:05:11.662Z,12500
2016-07-04T11:06:11.682Z,12184
2016-07-04T11:07:11.708Z,11812
2016-07-04T11:08:11.709Z,11740
2016-07-04T11:09:11.829Z,12372
2016-07-04T11:10:11.846Z,13268
2016-07-04T11:11:11.706Z,14744
2016-07-04T11:12:11.919Z,16976
2016-07-04T11:13:11.906Z,18244
2016-07-04T11:14:11.800Z,19328
2016-07-04T11:15:12.751Z,18460
2016-07-04T11:16:11.725Z,17192
2016-07-04T11:17:11.892Z,16224
2016-07-04T11:18:11.821Z,15356
2016-07-04T11:19:13.226Z,14180
2016-07-04T11:20:11.769Z,13200
2016-07-04T11:21:11.800Z,12952
2016-07-04T11:22:11.809Z,12560
2016-07-04T11:23:11.781Z,11888
2016-07-04T11:24:11.811Z,11292
2016-07-04T11:25:11.880Z,10768
2016-07-04T11:26:11.806Z,10336
2016-07-04T11:27:12.535Z,9708
2016-07-04T11:28:11.739Z,9576
2016-07-04T11:29:11.788Z,9360
2016-07-04T11:30:11.934Z,9272
2016-07-04T11:31:11.814Z,9080
2016-07-04T11:32:11.678Z,9136
2016-07-04T11:33:11.698Z,9064
2016-07-04T11:34:11.717Z,8616
2016-07-04T11:35:12.263Z,8320
2016-07-04T11:36:11.820Z,8752
2016-07-04T11:37:11.813Z,8796
2016-07-04T11:38:11.640Z,8768
2016-07-04T11:39:11.688Z,9020
2016-07-04T11:40:11.655Z,8712
2016-07-04T11:41:11.701Z,8160
2016-07-04T11:42:12.201Z,8464
2016-07-04T11:43:11.705Z,8928
2016-07-04T11:44:12.566Z,8648
2016-07-04T11:45:11.737Z,8260
2016-07-04T11:46:12.732Z,8184
2016-07-04T11:47:11.918Z,8404
2016-07-04T11:48:12.538Z,8712
2016-07-04T11:49:11.664Z,8456
2016-07-04T11:50:11.946Z,8132
2016-07-04T11:51:11.715Z,7916
2016-07-04T11:52:12.686Z,7808
2016-07-04T11:53:11.725Z,7648
2016-07-04T11:54:11.752Z,7468
2016-07-04T11:55:11.723Z,7276
2016-07-04T11:56:11.807Z,7148
2016-07-04T11:57:11.694Z,7000
2016-07-04T11:58:11.808Z,6872
2016-07-04T11:59:11.697Z,6852
2016-07-04T12:00:11.746Z,6720
2016-07-04T12:01:11.729Z,6828
2016-07-04T12:02:11.673Z,7152
2016-07-04T12:03:11.751Z,7624
2016-07-04T12:04:11.775Z,8116
2016-07-04T12:05:11.821Z,8020
2016-07-04T12:06:11.790Z,8436
2016-07-04T12:07:11.824Z,9512
2016-07-04T12:08:12.519Z,9440
2016-07-04T12:09:11.845Z,9028
2016-07-04T12:10:12.503Z,9908
2016-07-04T12:11:12.508Z,10612
2016-07-04T12:12:12.336Z,12100
2016-07-04T12:13:11.742Z,13304
2016-07-04T12:14:11.727Z,13348
2016-07-04T12:15:11.734Z,13064
2016-07-04T12:16:11.744Z,12568
2016-07-04T12:17:11.749Z,13116
2016-07-04T12:18:11.721Z,13392
2016-07-04T12:19:11.774Z,13300
2016-07-04T12:20:12.379Z,14096
2016-07-04T12:21:11.748Z,15704
2016-07-04T12:22:11.780Z,16700
2016-07-04T12:23:11.782Z,16600
2016-07-04T12:24:11.753Z,16308
2016-07-04T12:25:11.807Z,16440
2016-07-04T12:26:11.721Z,17012
2016-07-04T12:27:11.769Z,16468
2016-07-04T12:28:11.787Z,17160
2016-07-04T12:29:11.748Z,17064
2016-07-04T12:30:12.018Z,15512
2016-07-04T12:31:11.822Z,14048
2016-07-04T12:32:11.768Z,12380
2016-07-04T12:33:11.809Z,10840
2016-07-04T12:34:12.528Z,9848
2016-07-04T12:35:11.782Z,9052
2016-07-04T12:36:11.801Z,8596
2016-07-04T12:37:11.823Z,8172
2016-07-04T12:38:11.802Z,7940
2016-07-04T12:39:11.794Z,8064
2016-07-04T12:40:11.919Z,7848
2016-07-04T12:41:11.928Z,7720
2016-07-04T12:42:12.723Z,7656
2016-07-04T12:43:11.821Z,7708
2016-07-04T12:44:11.874Z,7352
2016-07-04T12:45:11.747Z,7100
2016-07-04T12:46:11.787Z,7308
2016-07-04T12:47:11.894Z,7680
2016-07-04T12:48:11.739Z,8716
2016-07-04T12:49:11.992Z,9064
2016-07-04T12:50:11.782Z,9308
2016-07-04T12:51:11.838Z,9604
2016-07-04T12:52:12.801Z,9796
2016-07-04T12:53:12.782Z,10096
2016-07-04T12:54:12.363Z,11144
2016-07-04T12:55:12.357Z,13352
2016-07-04T12:56:12.259Z,13744
2016-07-04T12:57:12.280Z,12928
2016-07-04T12:58:12.407Z,12148
2016-07-04T12:59:12.778Z,11492
2016-07-04T13:00:11.809Z,10800
2016-07-04T13:01:11.869Z,10952
2016-07-04T13:02:11.895Z,11384
2016-07-04T13:03:12.364Z,12048
2016-07-04T13:04:11.818Z,12488
2016-07-04T13:05:11.812Z,12888
2016-07-04T13:06:11.848Z,13592
2016-07-04T13:07:12.407Z,13996
2016-07-04T13:08:11.782Z,14080
2016-07-04T13:09:11.848Z,14948
2016-07-04T13:10:11.820Z,16368
2016-07-04T13:11:11.873Z,16280
2016-07-04T13:12:11.868Z,15140
2016-07-04T13:13:11.806Z,15428
2016-07-04T13:14:11.813Z,15992
2016-07-04T13:15:11.788Z,15548
2016-07-04T13:16:11.971Z,15216
2016-07-04T13:17:11.833Z,15984
2016-07-04T13:18:11.802Z,16276
2016-07-04T13:19:11.937Z,16648
2016-07-04T13:20:11.870Z,16644
2016-07-04T13:21:11.808Z,16176
2016-07-04T13:22:11.827Z,15200
2016-07-04T13:23:11.842Z,13128
2016-07-04T13:24:11.787Z,11412
2016-07-04T13:25:11.784Z,10812
2016-07-04T13:26:11.810Z,10936
2016-07-04T13:27:11.840Z,11776
2016-07-04T13:28:11.818Z,12336
2016-07-04T13:29:11.829Z,12376
2016-07-04T13:30:11.809Z,12252
2016-07-04T13:31:11.843Z,12640
2016-07-04T13:32:11.853Z,15056
2016-07-04T13:33:11.867Z,15860
2016-07-04T13:34:12.462Z,15724
2016-07-04T13:35:11.781Z,15852
2016-07-04T13:36:11.877Z,13624
2016-07-04T13:37:11.856Z,12016
2016-07-04T13:38:12.376Z,11244
2016-07-04T13:39:11.854Z,11552
2016-07-04T13:40:11.878Z,11672
2016-07-04T13:41:11.853Z,11320
2016-07-04T13:42:11.869Z,11328
2016-07-04T13:43:11.780Z,10920
2016-07-04T13:44:11.866Z,11288
2016-07-04T13:45:12.440Z,12036
2016-07-04T13:46:12.901Z,12280
2016-07-04T13:47:11.814Z,12820
2016-07-04T13:48:11.940Z,12556
2016-07-04T13:49:11.882Z,13152
2016-07-04T13:50:12.537Z,12332
2016-07-04T13:51:12.575Z,10952
2016-07-04T13:52:11.903Z,10804
2016-07-04T13:53:11.929Z,11276
2016-07-04T13:54:11.988Z,11972